Aviation Digital Data Service (ADDS)

Output produced by METARs form (1027 UTC 16 August 2018)
found at http://aviationweather.gov/adds/metars/
 
KDFW 160911Z 1609/1712 19011KT P6SM SCT300